createdAt,value
2023-01-29T00:00:21.896Z,19.05
2023-01-29T00:00:54.444Z,15.30
2023-01-29T00:01:26.887Z,18.33
2023-01-29T00:01:59.402Z,15.38
2023-01-29T00:02:33.164Z,18.90
2023-01-29T00:03:06.664Z,18.80
2023-01-29T00:03:38.978Z,16.67
2023-01-29T00:04:11.516Z,18.02
2023-01-29T00:04:43.979Z,17.58
2023-01-29T00:05:27.340Z,19.33
2023-01-29T00:06:00.842Z,19.05
2023-01-29T00:06:33.443Z,20.75
2023-01-29T00:07:05.750Z,18.67
2023-01-29T00:07:38.378Z,20.20
2023-01-29T00:08:12.140Z,20.45
2023-01-29T00:08:44.720Z,19.38
2023-01-29T00:09:17.253Z,16.45
2023-01-29T00:09:50.308Z,19.67
2023-01-29T00:10:22.899Z,20.73
2023-01-29T00:11:00.443Z,17.33
2023-01-29T00:11:32.946Z,16.65
2023-01-29T00:12:05.586Z,15.65
2023-01-29T00:12:37.912Z,14.50
2023-01-29T00:13:10.299Z,18.08
2023-01-29T00:13:43.011Z,18.85
2023-01-29T00:14:15.629Z,20.13
2023-01-29T00:14:48.194Z,19.40
2023-01-29T00:15:21.140Z,14.77
2023-01-29T00:15:54.084Z,15.93
2023-01-29T00:16:26.594Z,18.63
2023-01-29T00:16:59.142Z,15.60
2023-01-29T00:17:31.603Z,16.42
2023-01-29T00:18:04.068Z,18.83
2023-01-29T00:18:40.238Z,19.88
2023-01-29T00:19:12.676Z,18.98
2023-01-29T00:19:45.168Z,20.87
2023-01-29T00:20:18.046Z,21.25
2023-01-29T00:20:50.750Z,18.92
2023-01-29T00:21:23.333Z,19.30
2023-01-29T00:21:55.669Z,16.92
2023-01-29T00:22:30.527Z,18.27
2023-01-29T00:23:02.877Z,19.15
2023-01-29T00:23:35.375Z,13.70
2023-01-29T00:24:08.001Z,17.98
2023-01-29T00:24:40.595Z,14.95
2023-01-29T00:25:12.987Z,17.52
2023-01-29T00:25:45.808Z,17.35
2023-01-29T00:26:18.228Z,19.35
2023-01-29T00:26:53.561Z,17.40
2023-01-29T00:27:25.923Z,17.67
2023-01-29T00:27:58.609Z,15.90
2023-01-29T00:28:32.022Z,16.60
2023-01-29T00:29:04.820Z,18.65
2023-01-29T00:29:37.266Z,17.83
2023-01-29T00:30:13.273Z,17.80
2023-01-29T00:30:45.663Z,17.80
2023-01-29T00:31:22.574Z,19.73
2023-01-29T00:31:55.250Z,18.65
2023-01-29T00:32:28.255Z,19.23
2023-01-29T00:33:00.618Z,20.42
2023-01-29T00:33:33.249Z,17.42
2023-01-29T00:34:05.610Z,18.85
2023-01-29T00:34:38.019Z,18.23
2023-01-29T00:35:10.745Z,14.30
2023-01-29T00:35:43.323Z,17.25
2023-01-29T00:36:16.592Z,14.03
2023-01-29T00:36:49.080Z,14.38
2023-01-29T00:37:21.478Z,18.45
2023-01-29T00:37:55.570Z,14.77
2023-01-29T00:38:28.875Z,21.77
2023-01-29T00:39:03.914Z,17.27
2023-01-29T00:39:47.420Z,19.10
2023-01-29T00:40:20.507Z,17.48
2023-01-29T00:41:11.441Z,16.52
2023-01-29T00:42:02.473Z,18.25
2023-01-29T00:42:53.465Z,12.85
2023-01-29T00:43:44.676Z,16.27
2023-01-29T00:44:36.475Z,17.85
2023-01-29T00:45:09.841Z,16.40
2023-01-29T00:45:42.467Z,17.98
2023-01-29T00:46:14.964Z,18.38
2023-01-29T00:46:47.593Z,20.25
2023-01-29T00:47:37.726Z,17.65
2023-01-29T00:48:10.153Z,14.20
2023-01-29T00:48:42.607Z,20.65
2023-01-29T00:49:15.875Z,21.08
2023-01-29T00:49:48.552Z,22.42
2023-01-29T00:50:21.122Z,18.27
2023-01-29T00:50:53.482Z,19.50
2023-01-29T00:51:25.846Z,19.73
2023-01-29T00:52:16.763Z,17.40
2023-01-29T00:52:50.319Z,18.50
2023-01-29T00:53:23.047Z,18.50
2023-01-29T00:53:58.582Z,14.75
2023-01-29T00:54:33.052Z,22.55
2023-01-29T00:55:06.073Z,21.23
2023-01-29T00:55:38.596Z,17.02
2023-01-29T00:56:11.114Z,19.70
2023-01-29T00:56:43.561Z,19.48
2023-01-29T00:57:16.885Z,18.73
2023-01-29T00:57:49.715Z,19.33
2023-01-29T00:58:22.744Z,20.55
2023-01-29T00:58:55.784Z,23.23
2023-01-29T00:59:28.290Z,22.92
2023-01-29T01:00:00.957Z,19.10
2023-01-29T01:00:33.360Z,19.88
2023-01-29T01:01:05.980Z,17.42
2023-01-29T01:02:01.492Z,14.77
2023-01-29T01:02:52.619Z,15.52
2023-01-29T01:03:25.064Z,15.48
2023-01-29T01:03:57.564Z,17.65
2023-01-29T01:04:30.117Z,17.02
2023-01-29T01:05:06.573Z,18.42
2023-01-29T01:05:39.417Z,14.20
2023-01-29T01:06:12.212Z,15.45
2023-01-29T01:06:45.002Z,16.08
2023-01-29T01:07:17.691Z,15.35
2023-01-29T01:07:51.835Z,18.08
2023-01-29T01:08:44.421Z,14.93
2023-01-29T01:09:35.429Z,14.88
2023-01-29T01:10:23.115Z,14.55
2023-01-29T01:10:59.123Z,16.90
2023-01-29T01:11:31.973Z,14.02
2023-01-29T01:12:04.452Z,12.93
2023-01-29T01:12:36.760Z,15.68
2023-01-29T01:13:09.484Z,15.40
2023-01-29T01:13:41.868Z,14.52
2023-01-29T01:14:14.720Z,17.20
2023-01-29T01:14:48.881Z,16.35
2023-01-29T01:15:21.683Z,16.88
2023-01-29T01:15:54.058Z,17.35
2023-01-29T01:16:27.353Z,18.50
2023-01-29T01:16:59.896Z,18.00
2023-01-29T01:17:32.447Z,18.08
2023-01-29T01:18:05.363Z,17.13
2023-01-29T01:18:38.307Z,15.38
2023-01-29T01:19:11.223Z,18.27
2023-01-29T01:19:43.611Z,15.15
2023-01-29T01:20:16.699Z,15.15
2023-01-29T01:20:52.064Z,14.23
2023-01-29T01:21:24.530Z,14.85
2023-01-29T01:21:56.884Z,16.65
2023-01-29T01:22:29.274Z,15.82
2023-01-29T01:23:01.714Z,16.20
2023-01-29T01:23:34.227Z,13.63
2023-01-29T01:24:06.869Z,11.52
2023-01-29T01:24:39.565Z,12.77
2023-01-29T01:25:11.968Z,12.70
2023-01-29T01:25:44.569Z,11.63
2023-01-29T01:26:16.948Z,12.18
2023-01-29T01:26:49.252Z,12.82
2023-01-29T01:27:22.021Z,14.07
2023-01-29T01:28:30.800Z,12.75
2023-01-29T01:29:03.300Z,11.40
2023-01-29T01:29:35.780Z,13.18
2023-01-29T01:30:09.637Z,13.32
2023-01-29T01:30:42.264Z,15.68
2023-01-29T01:31:23.336Z,13.75
2023-01-29T01:31:56.127Z,14.98
2023-01-29T01:32:29.868Z,16.27
2023-01-29T01:33:02.290Z,14.52
2023-01-29T01:33:34.709Z,13.50
2023-01-29T01:34:07.469Z,14.45
2023-01-29T01:34:39.993Z,13.63
2023-01-29T01:35:12.435Z,15.15
2023-01-29T01:35:44.942Z,15.40
2023-01-29T01:36:17.664Z,15.70
2023-01-29T01:36:50.362Z,16.38
2023-01-29T01:37:22.880Z,13.85
2023-01-29T01:37:55.357Z,12.10
2023-01-29T01:38:27.846Z,11.43
2023-01-29T01:39:00.211Z,15.43
2023-01-29T01:39:33.373Z,13.52
2023-01-29T01:40:12.813Z,16.35
2023-01-29T01:40:46.305Z,12.95
2023-01-29T01:41:22.387Z,13.77
2023-01-29T01:41:54.930Z,14.07
2023-01-29T01:42:30.885Z,15.98
2023-01-29T01:43:03.388Z,17.30
2023-01-29T01:43:50.854Z,14.32
2023-01-29T01:44:41.905Z,13.52
2023-01-29T01:45:21.827Z,14.23
2023-01-29T01:45:54.446Z,12.52
2023-01-29T01:46:37.147Z,13.23
2023-01-29T01:47:09.576Z,13.95
2023-01-29T01:47:43.720Z,13.95
2023-01-29T01:48:24.018Z,12.30
2023-01-29T01:48:59.548Z,12.55
2023-01-29T01:49:32.620Z,13.52
2023-01-29T01:50:12.730Z,13.00
2023-01-29T01:50:45.018Z,13.23
2023-01-29T01:51:17.519Z,14.00
2023-01-29T01:51:52.225Z,12.63
2023-01-29T01:52:24.592Z,14.05
2023-01-29T01:53:00.412Z,11.68
2023-01-29T01:53:40.911Z,11.32
2023-01-29T01:54:15.394Z,12.55
2023-01-29T01:54:48.400Z,12.68
2023-01-29T01:55:22.496Z,13.05
2023-01-29T01:55:58.211Z,11.85
2023-01-29T01:56:40.828Z,11.70
2023-01-29T01:57:16.454Z,11.82
2023-01-29T01:57:52.446Z,11.13
2023-01-29T01:58:27.051Z,12.73
2023-01-29T01:58:59.694Z,11.93
2023-01-29T01:59:33.093Z,14.82
2023-01-29T02:00:13.566Z,12.48
2023-01-29T02:00:46.246Z,13.38
2023-01-29T02:01:19.402Z,11.80
2023-01-29T02:01:54.079Z,9.63
2023-01-29T02:02:45.769Z,12.30
2023-01-29T02:03:38.700Z,10.25
2023-01-29T02:04:35.519Z,12.05
2023-01-29T02:05:27.058Z,9.88
2023-01-29T02:06:19.291Z,9.20
2023-01-29T02:07:11.915Z,10.63
2023-01-29T02:08:04.452Z,10.43
2023-01-29T02:08:55.308Z,11.65
2023-01-29T02:09:35.632Z,10.70
2023-01-29T02:10:08.450Z,9.18
2023-01-29T02:10:45.154Z,10.52
2023-01-29T02:11:18.504Z,10.27
2023-01-29T02:11:51.270Z,11.18
2023-01-29T02:12:23.833Z,11.73
2023-01-29T02:12:56.539Z,9.27
2023-01-29T02:13:29.148Z,8.98
2023-01-29T02:14:01.485Z,11.57
2023-01-29T02:14:34.820Z,11.15
2023-01-29T02:15:07.483Z,11.60
2023-01-29T02:15:42.482Z,10.85
2023-01-29T02:16:15.025Z,10.73
2023-01-29T02:16:47.597Z,11.68
2023-01-29T02:17:20.981Z,12.15
2023-01-29T02:17:53.505Z,9.48
2023-01-29T02:18:26.463Z,12.82
2023-01-29T02:18:58.869Z,10.00
2023-01-29T02:19:34.391Z,10.20
2023-01-29T02:20:13.183Z,11.00
2023-01-29T02:21:08.547Z,12.43
2023-01-29T02:21:52.926Z,10.30
2023-01-29T02:22:40.543Z,11.70
2023-01-29T02:23:27.367Z,11.43
2023-01-29T02:24:32.283Z,11.00
2023-01-29T02:25:27.719Z,12.48
2023-01-29T02:26:16.062Z,10.57
2023-01-29T02:26:50.844Z,9.73
2023-01-29T02:27:35.947Z,8.23
2023-01-29T02:28:23.333Z,9.73
2023-01-29T02:29:22.933Z,12.05
2023-01-29T02:30:04.669Z,9.32
2023-01-29T02:30:40.646Z,9.63
2023-01-29T02:31:24.462Z,11.57
2023-01-29T02:31:57.216Z,11.15
2023-01-29T02:32:38.259Z,11.30
2023-01-29T02:33:15.883Z,9.63
2023-01-29T02:34:06.988Z,9.52
2023-01-29T02:34:57.766Z,10.25
2023-01-29T02:35:32.420Z,9.32
2023-01-29T02:36:05.842Z,11.88
2023-01-29T02:36:45.306Z,12.18
2023-01-29T02:37:17.881Z,11.15
2023-01-29T02:37:59.466Z,11.70
2023-01-29T02:38:37.834Z,11.07
2023-01-29T02:39:28.672Z,14.75
2023-01-29T02:40:09.144Z,13.07
2023-01-29T02:40:52.174Z,9.98
2023-01-29T02:41:46.477Z,10.52
2023-01-29T02:42:19.259Z,11.55
2023-01-29T02:42:57.648Z,11.88
2023-01-29T02:43:36.637Z,11.27
2023-01-29T02:44:19.101Z,10.90
2023-01-29T02:45:00.909Z,10.43
2023-01-29T02:45:40.217Z,13.25
2023-01-29T02:46:12.986Z,9.45
2023-01-29T02:46:45.349Z,11.82
2023-01-29T02:47:29.503Z,11.93
2023-01-29T02:48:02.760Z,10.48
2023-01-29T02:48:43.847Z,11.02
2023-01-29T02:49:19.063Z,8.55
2023-01-29T02:49:56.595Z,10.55
2023-01-29T02:50:42.385Z,13.00
2023-01-29T02:51:20.157Z,11.60
2023-01-29T02:52:10.225Z,12.77
2023-01-29T02:52:50.949Z,11.90
2023-01-29T02:53:30.503Z,11.02
2023-01-29T02:54:05.705Z,9.18
2023-01-29T02:54:47.084Z,11.45
2023-01-29T02:55:23.581Z,11.05
2023-01-29T02:56:08.166Z,9.57
2023-01-29T02:56:46.887Z,9.15
2023-01-29T02:57:30.901Z,11.73
2023-01-29T02:58:07.923Z,11.25
2023-01-29T02:58:42.943Z,9.63
2023-01-29T02:59:18.422Z,9.93
2023-01-29T02:59:50.828Z,10.30
2023-01-29T03:00:35.497Z,11.85
2023-01-29T03:01:14.874Z,10.25
2023-01-29T03:01:58.737Z,9.52
2023-01-29T03:02:51.402Z,10.10
2023-01-29T03:03:29.546Z,10.10
2023-01-29T03:04:04.420Z,10.63
2023-01-29T03:04:42.737Z,11.27
2023-01-29T03:05:18.046Z,10.23
2023-01-29T03:05:58.416Z,10.82
2023-01-29T03:06:33.364Z,10.30
2023-01-29T03:07:11.368Z,10.77
2023-01-29T03:07:46.985Z,9.00
2023-01-29T03:08:37.601Z,8.48
2023-01-29T03:09:09.939Z,10.43
2023-01-29T03:09:45.409Z,10.45
2023-01-29T03:10:51.132Z,8.65
2023-01-29T03:11:23.733Z,9.35
2023-01-29T03:11:59.064Z,9.80
2023-01-29T03:12:34.308Z,10.35
2023-01-29T03:13:13.750Z,11.85
2023-01-29T03:13:46.480Z,8.90
2023-01-29T03:14:24.406Z,8.85
2023-01-29T03:15:13.310Z,7.55
2023-01-29T03:15:55.132Z,9.60
2023-01-29T03:16:52.696Z,9.10
2023-01-29T03:17:28.071Z,9.45
2023-01-29T03:18:05.346Z,9.32
2023-01-29T03:18:44.032Z,9.25
2023-01-29T03:19:17.645Z,9.13
2023-01-29T03:19:51.246Z,9.73
2023-01-29T03:20:32.473Z,10.20
2023-01-29T03:21:27.948Z,9.32
2023-01-29T03:22:02.071Z,9.23
2023-01-29T03:22:37.690Z,8.93
2023-01-29T03:23:14.265Z,9.63
2023-01-29T03:24:05.436Z,9.75
2023-01-29T03:25:08.648Z,8.05
2023-01-29T03:26:01.742Z,8.98
2023-01-29T03:26:54.945Z,8.95
2023-01-29T03:27:48.330Z,9.77
2023-01-29T03:28:40.749Z,9.25
2023-01-29T03:29:32.780Z,11.02
2023-01-29T03:30:26.537Z,8.98
2023-01-29T03:31:25.520Z,9.13
2023-01-29T03:32:07.129Z,10.10
2023-01-29T03:32:40.211Z,8.80
2023-01-29T03:33:13.574Z,9.02
2023-01-29T03:33:48.631Z,10.00
2023-01-29T03:34:35.506Z,10.57
2023-01-29T03:35:11.089Z,9.07
2023-01-29T03:35:48.664Z,8.05
2023-01-29T03:36:40.032Z,9.85
2023-01-29T03:37:15.639Z,10.20
2023-01-29T03:37:49.193Z,9.57
2023-01-29T03:38:22.261Z,10.27
2023-01-29T03:38:54.837Z,8.95
2023-01-29T03:39:30.227Z,9.52
2023-01-29T03:40:06.682Z,8.32
2023-01-29T03:40:57.347Z,9.27
2023-01-29T03:41:33.171Z,9.75
2023-01-29T03:42:12.564Z,8.77
2023-01-29T03:43:05.446Z,6.88
2023-01-29T03:43:45.951Z,10.27
2023-01-29T03:44:21.475Z,9.65
2023-01-29T03:45:12.523Z,7.20
2023-01-29T03:45:55.367Z,9.18
2023-01-29T03:46:38.325Z,8.75
2023-01-29T03:47:27.204Z,8.70
2023-01-29T03:48:09.783Z,8.73
2023-01-29T03:48:47.802Z,9.73
2023-01-29T03:49:29.185Z,9.05
2023-01-29T03:50:11.690Z,9.88
2023-01-29T03:50:47.055Z,9.45
2023-01-29T03:51:26.558Z,8.98
2023-01-29T03:52:02.962Z,9.40
2023-01-29T03:52:44.656Z,8.20
2023-01-29T03:53:25.717Z,8.55
2023-01-29T03:54:10.891Z,7.63
2023-01-29T03:54:57.624Z,8.77
2023-01-29T03:55:42.031Z,8.98
2023-01-29T03:56:29.623Z,8.68
2023-01-29T03:57:08.408Z,8.88
2023-01-29T03:57:40.986Z,10.63
2023-01-29T03:58:31.056Z,8.35
2023-01-29T03:59:26.061Z,8.77
2023-01-29T04:00:33.108Z,7.68
2023-01-29T04:01:21.103Z,10.55
2023-01-29T04:02:01.863Z,9.57
2023-01-29T04:02:39.198Z,7.85
2023-01-29T04:03:22.129Z,7.18
2023-01-29T04:04:12.091Z,7.85
2023-01-29T04:04:45.303Z,8.55
2023-01-29T04:05:20.348Z,9.30
2023-01-29T04:06:10.204Z,10.02
2023-01-29T04:06:50.807Z,6.70
2023-01-29T04:07:24.809Z,8.02
2023-01-29T04:08:08.973Z,7.72
2023-01-29T04:08:46.894Z,8.85
2023-01-29T04:09:25.158Z,7.15
2023-01-29T04:10:03.177Z,8.20
2023-01-29T04:10:40.968Z,8.63
2023-01-29T04:11:15.798Z,8.00
2023-01-29T04:11:49.994Z,9.00
2023-01-29T04:12:26.405Z,7.75
2023-01-29T04:13:01.321Z,9.18
2023-01-29T04:13:37.332Z,7.25
2023-01-29T04:14:09.872Z,7.53
2023-01-29T04:14:42.540Z,9.75
2023-01-29T04:15:16.924Z,7.43
2023-01-29T04:15:54.594Z,6.85
2023-01-29T04:16:44.848Z,15.65
2023-01-29T04:17:53.315Z,7.75
2023-01-29T04:18:32.956Z,7.20
2023-01-29T04:19:13.718Z,8.02
2023-01-29T04:19:48.231Z,7.70
2023-01-29T04:20:21.113Z,6.82
2023-01-29T04:20:53.709Z,6.60
2023-01-29T04:21:26.553Z,7.03
2023-01-29T04:22:19.359Z,7.35
2023-01-29T04:22:52.121Z,6.78
2023-01-29T04:23:26.462Z,7.05
2023-01-29T04:24:00.230Z,7.60
2023-01-29T04:24:33.119Z,8.68
2023-01-29T04:25:10.177Z,9.13
2023-01-29T04:25:45.731Z,9.95
2023-01-29T04:26:27.682Z,8.73
2023-01-29T04:27:07.618Z,8.57
2023-01-29T04:27:46.350Z,7.50
2023-01-29T04:28:32.465Z,6.07
2023-01-29T04:29:23.499Z,6.82
2023-01-29T04:30:30.937Z,8.90
2023-01-29T04:31:06.986Z,7.07
2023-01-29T04:31:48.075Z,6.65
2023-01-29T04:32:26.465Z,7.60
2023-01-29T04:33:17.946Z,6.85
2023-01-29T04:34:09.210Z,7.43
2023-01-29T04:34:51.769Z,7.32
2023-01-29T04:35:30.416Z,6.47
2023-01-29T04:36:23.006Z,7.07
2023-01-29T04:37:15.704Z,6.95
2023-01-29T04:37:53.648Z,10.75
2023-01-29T04:38:25.977Z,16.60
2023-01-29T04:39:01.401Z,12.30
2023-01-29T04:39:46.317Z,6.82
2023-01-29T04:40:19.200Z,6.53
2023-01-29T04:40:54.975Z,6.90
2023-01-29T04:41:33.802Z,6.75
2023-01-29T04:42:13.843Z,5.88
2023-01-29T04:42:53.933Z,5.82
2023-01-29T04:43:26.407Z,7.60
2023-01-29T04:44:11.295Z,6.43
2023-01-29T04:44:55.574Z,6.50
2023-01-29T04:45:46.631Z,5.93
2023-01-29T04:46:22.052Z,5.60
2023-01-29T04:47:15.767Z,5.50
2023-01-29T04:47:52.595Z,5.68
2023-01-29T04:48:37.718Z,6.38
2023-01-29T04:49:13.077Z,6.25
2023-01-29T04:49:57.017Z,5.97
2023-01-29T04:50:32.010Z,6.13
2023-01-29T04:51:19.649Z,5.40
2023-01-29T04:51:58.635Z,5.88
2023-01-29T04:52:33.821Z,6.57
2023-01-29T04:53:26.035Z,5.20
2023-01-29T04:54:12.753Z,5.97
2023-01-29T04:54:50.168Z,5.38
2023-01-29T04:55:29.962Z,6.75
2023-01-29T04:56:02.268Z,6.05
2023-01-29T04:56:37.713Z,6.20
2023-01-29T04:57:15.299Z,5.72
2023-01-29T04:57:51.047Z,6.57
2023-01-29T04:58:34.690Z,6.97
2023-01-29T04:59:12.072Z,7.07
2023-01-29T04:59:48.687Z,9.25
2023-01-29T05:00:27.469Z,7.03
2023-01-29T05:01:01.276Z,6.65
2023-01-29T05:01:34.239Z,6.32
2023-01-29T05:02:08.278Z,7.03
2023-01-29T05:02:42.414Z,6.20
2023-01-29T05:03:15.658Z,7.25
2023-01-29T05:03:50.424Z,5.60
2023-01-29T05:04:23.720Z,7.70
2023-01-29T05:04:57.703Z,6.93
2023-01-29T05:05:30.465Z,7.60
2023-01-29T05:06:03.066Z,7.40
2023-01-29T05:06:37.478Z,7.53
2023-01-29T05:07:11.868Z,7.47
2023-01-29T05:07:44.585Z,6.85
2023-01-29T05:08:21.786Z,7.60
2023-01-29T05:08:55.176Z,7.55
2023-01-29T05:09:27.939Z,7.13
2023-01-29T05:10:00.688Z,5.82
2023-01-29T05:10:33.751Z,7.70
2023-01-29T05:11:06.540Z,7.75
2023-01-29T05:11:39.233Z,7.82
2023-01-29T05:12:13.252Z,8.55
2023-01-29T05:12:48.012Z,8.27
2023-01-29T05:13:22.455Z,8.98
2023-01-29T05:13:55.298Z,8.32
2023-01-29T05:14:30.737Z,7.20
2023-01-29T05:15:05.831Z,7.70
2023-01-29T05:15:58.430Z,10.07
2023-01-29T05:16:42.184Z,11.82
2023-01-29T05:17:16.624Z,9.50
2023-01-29T05:17:49.133Z,9.00
2023-01-29T05:18:21.639Z,8.60
2023-01-29T05:18:54.651Z,10.13
2023-01-29T05:19:27.413Z,7.38
2023-01-29T05:19:59.892Z,8.35
2023-01-29T05:20:33.454Z,8.13
2023-01-29T05:21:07.999Z,9.18
2023-01-29T05:21:41.513Z,10.63
2023-01-29T05:22:16.318Z,8.73
2023-01-29T05:22:49.531Z,10.18
2023-01-29T05:23:22.808Z,11.05
2023-01-29T05:24:15.377Z,13.13
2023-01-29T05:24:47.766Z,8.90
2023-01-29T05:25:22.642Z,7.47
2023-01-29T05:25:56.808Z,8.45
2023-01-29T05:26:47.776Z,9.50
2023-01-29T05:27:40.603Z,11.07
2023-01-29T05:28:19.361Z,11.60
2023-01-29T05:28:51.919Z,11.70
2023-01-29T05:29:24.432Z,13.25
2023-01-29T05:29:57.795Z,10.90
2023-01-29T05:30:30.663Z,9.88
2023-01-29T05:31:03.055Z,11.30
2023-01-29T05:31:35.650Z,11.35
2023-01-29T05:32:08.142Z,10.98
2023-01-29T05:32:40.674Z,12.70
2023-01-29T05:33:14.758Z,13.15
2023-01-29T05:33:47.256Z,17.33
2023-01-29T05:34:19.615Z,14.30
2023-01-29T05:34:52.324Z,12.82
2023-01-29T05:35:24.962Z,12.85
2023-01-29T05:35:59.089Z,11.18
2023-01-29T05:36:31.544Z,13.75
2023-01-29T05:37:03.871Z,16.73
2023-01-29T05:37:36.405Z,15.27
2023-01-29T05:38:09.046Z,11.65
2023-01-29T05:38:41.489Z,9.35
2023-01-29T05:39:13.971Z,7.47
2023-01-29T05:39:46.303Z,8.57
2023-01-29T05:40:18.976Z,11.63
2023-01-29T05:40:51.614Z,11.57
2023-01-29T05:41:24.074Z,8.60
2023-01-29T05:41:56.477Z,9.07
2023-01-29T05:42:28.953Z,7.03
2023-01-29T05:43:01.257Z,9.68
2023-01-29T05:43:33.825Z,8.00
2023-01-29T05:44:06.242Z,7.85
2023-01-29T05:44:38.688Z,8.80
2023-01-29T05:45:11.245Z,9.32
2023-01-29T05:45:43.885Z,7.30
2023-01-29T05:46:16.251Z,8.52
2023-01-29T05:46:48.771Z,7.25
2023-01-29T05:47:21.230Z,8.75
2023-01-29T05:47:59.940Z,7.55
2023-01-29T05:48:32.764Z,10.23
2023-01-29T05:49:05.534Z,9.00
2023-01-29T05:49:38.835Z,8.07
2023-01-29T05:50:11.951Z,9.75
2023-01-29T05:50:44.399Z,9.20
2023-01-29T05:51:16.707Z,8.27
2023-01-29T05:51:49.364Z,9.82
2023-01-29T05:52:21.801Z,9.35
2023-01-29T05:52:58.572Z,11.70
2023-01-29T05:53:31.651Z,11.43
2023-01-29T05:54:04.085Z,12.93
2023-01-29T05:54:36.509Z,14.23
2023-01-29T05:55:09.998Z,12.40
2023-01-29T05:55:46.105Z,12.35
2023-01-29T05:56:18.603Z,13.65
2023-01-29T05:56:50.957Z,12.27
2023-01-29T05:57:23.651Z,11.65
2023-01-29T05:57:56.223Z,11.57
2023-01-29T05:58:30.200Z,11.68
2023-01-29T05:59:02.645Z,10.98
2023-01-29T05:59:37.159Z,10.77
2023-01-29T06:00:09.863Z,10.90
2023-01-29T06:00:45.367Z,10.27
2023-01-29T06:01:18.851Z,12.43
2023-01-29T06:01:51.639Z,12.93
2023-01-29T06:02:24.180Z,13.48
2023-01-29T06:02:57.105Z,10.38
2023-01-29T06:03:29.470Z,11.77
2023-01-29T06:04:02.027Z,12.93
2023-01-29T06:04:34.510Z,12.00
2023-01-29T06:05:07.067Z,10.30
2023-01-29T06:05:40.044Z,9.95
2023-01-29T06:06:12.897Z,11.32
2023-01-29T06:06:45.261Z,11.57
2023-01-29T06:07:18.214Z,10.90
2023-01-29T06:07:50.804Z,12.20
2023-01-29T06:08:23.403Z,10.85
2023-01-29T06:08:56.079Z,10.05
2023-01-29T06:09:28.769Z,11.90
2023-01-29T06:10:01.379Z,9.50
2023-01-29T06:10:33.902Z,10.70
2023-01-29T06:11:09.921Z,11.65
2023-01-29T06:11:42.663Z,11.68
2023-01-29T06:12:16.163Z,15.35
2023-01-29T06:12:48.757Z,17.00
2023-01-29T06:13:23.432Z,20.23
2023-01-29T06:13:56.042Z,16.65
2023-01-29T06:14:28.603Z,16.73
2023-01-29T06:15:01.050Z,17.77
2023-01-29T06:15:33.578Z,19.20
2023-01-29T06:16:09.480Z,19.27
2023-01-29T06:16:42.054Z,18.13
2023-01-29T06:17:14.692Z,15.50
2023-01-29T06:17:47.446Z,16.60
2023-01-29T06:18:19.998Z,14.07
2023-01-29T06:18:52.362Z,13.68
2023-01-29T06:19:24.819Z,15.05
2023-01-29T06:19:57.428Z,16.80
2023-01-29T06:20:29.808Z,13.52
2023-01-29T06:21:03.167Z,14.65
2023-01-29T06:21:35.486Z,14.85
2023-01-29T06:22:07.850Z,10.30
2023-01-29T06:22:40.279Z,13.10
2023-01-29T06:23:12.823Z,11.63
2023-01-29T06:23:45.545Z,11.77
2023-01-29T06:24:18.132Z,14.18
2023-01-29T06:24:50.667Z,13.45
2023-01-29T06:25:23.203Z,14.73
2023-01-29T06:25:59.615Z,14.43
2023-01-29T06:26:32.162Z,15.63
2023-01-29T06:27:04.671Z,13.20
2023-01-29T06:27:37.085Z,16.20
2023-01-29T06:28:10.535Z,13.55
2023-01-29T06:28:45.550Z,16.27
2023-01-29T06:29:18.032Z,14.25
2023-01-29T06:29:50.579Z,14.95
2023-01-29T06:30:23.046Z,13.18
2023-01-29T06:30:59.741Z,12.73
2023-01-29T06:31:39.074Z,12.40
2023-01-29T06:32:11.770Z,12.55
2023-01-29T06:32:44.192Z,11.07
2023-01-29T06:33:16.499Z,10.18
2023-01-29T06:33:48.952Z,12.82
2023-01-29T06:34:21.359Z,11.60
2023-01-29T06:34:53.850Z,12.52
2023-01-29T06:35:26.483Z,12.32
2023-01-29T06:35:59.825Z,10.02
2023-01-29T06:36:32.416Z,10.50
2023-01-29T06:37:05.279Z,12.15
2023-01-29T06:37:37.582Z,11.70
2023-01-29T06:38:09.916Z,12.00
2023-01-29T06:38:42.651Z,10.68
2023-01-29T06:39:15.409Z,11.52
2023-01-29T06:39:47.954Z,10.52
2023-01-29T06:40:20.934Z,11.48
2023-01-29T06:40:53.778Z,9.75
2023-01-29T06:41:26.203Z,7.47
2023-01-29T06:41:58.936Z,9.70
2023-01-29T06:42:31.303Z,9.63
2023-01-29T06:43:03.630Z,9.63
2023-01-29T06:43:36.179Z,12.98
2023-01-29T06:44:08.536Z,11.38
2023-01-29T06:44:41.071Z,12.32
2023-01-29T06:45:13.811Z,16.25
2023-01-29T06:45:47.504Z,16.42
2023-01-29T06:46:20.129Z,16.08
2023-01-29T06:46:52.625Z,17.90
2023-01-29T06:47:25.353Z,15.68
2023-01-29T06:47:59.905Z,17.88
2023-01-29T06:48:33.542Z,19.17
2023-01-29T06:49:05.953Z,15.15
2023-01-29T06:49:38.245Z,16.05
2023-01-29T06:50:11.290Z,17.25
2023-01-29T06:50:44.192Z,17.88
2023-01-29T06:51:16.664Z,14.85
2023-01-29T06:51:49.521Z,16.08
2023-01-29T06:52:22.107Z,17.45
2023-01-29T06:52:54.462Z,15.85
2023-01-29T06:53:26.839Z,18.65
2023-01-29T06:53:59.257Z,19.60
2023-01-29T06:54:31.992Z,18.77
2023-01-29T06:55:04.814Z,20.65
2023-01-29T06:55:37.447Z,22.63
2023-01-29T06:56:10.062Z,24.63
2023-01-29T06:56:42.821Z,22.42
2023-01-29T06:57:15.276Z,21.27
2023-01-29T06:57:47.621Z,24.33
2023-01-29T06:58:20.856Z,24.02
2023-01-29T06:58:53.320Z,22.13
2023-01-29T06:59:25.623Z,16.27
2023-01-29T06:59:58.383Z,16.27
2023-01-29T07:00:31.609Z,15.35
2023-01-29T07:01:08.169Z,15.68
2023-01-29T07:01:44.664Z,16.63
2023-01-29T07:02:17.153Z,14.27
2023-01-29T07:02:50.357Z,13.77
2023-01-29T07:03:22.748Z,18.90
2023-01-29T07:03:55.216Z,16.55
2023-01-29T07:04:27.775Z,18.13
2023-01-29T07:05:00.131Z,20.67
2023-01-29T07:05:32.530Z,20.20
2023-01-29T07:06:05.546Z,19.80
2023-01-29T07:06:38.046Z,22.98
2023-01-29T07:07:13.580Z,24.05
2023-01-29T07:07:45.982Z,23.13
2023-01-29T07:08:18.329Z,19.77
2023-01-29T07:08:51.034Z,18.48
2023-01-29T07:09:23.552Z,20.85
2023-01-29T07:09:56.109Z,22.38
2023-01-29T07:10:28.659Z,24.17
2023-01-29T07:11:01.867Z,19.42
2023-01-29T07:11:34.960Z,18.80
2023-01-29T07:12:07.548Z,15.68
2023-01-29T07:12:39.959Z,15.57
2023-01-29T07:13:12.468Z,20.20
2023-01-29T07:13:44.934Z,17.65
2023-01-29T07:14:17.290Z,18.10
2023-01-29T07:14:50.092Z,20.15
2023-01-29T07:15:22.455Z,21.60
2023-01-29T07:15:56.148Z,18.30
2023-01-29T07:16:28.660Z,19.17
2023-01-29T07:17:00.981Z,17.00
2023-01-29T07:17:33.383Z,18.02
2023-01-29T07:18:12.256Z,16.13
2023-01-29T07:18:44.806Z,18.65
2023-01-29T07:19:17.377Z,17.45
2023-01-29T07:19:50.083Z,14.77
2023-01-29T07:20:22.620Z,19.75
2023-01-29T07:20:55.467Z,17.33
2023-01-29T07:21:28.307Z,15.30
2023-01-29T07:22:05.895Z,14.05
2023-01-29T07:22:38.333Z,13.98
2023-01-29T07:23:11.977Z,12.27
2023-01-29T07:23:44.456Z,13.68
2023-01-29T07:24:19.999Z,14.60
2023-01-29T07:24:54.299Z,14.85
2023-01-29T07:25:26.678Z,12.80
2023-01-29T07:26:01.745Z,15.32
2023-01-29T07:26:34.353Z,13.45
2023-01-29T07:27:06.878Z,13.40
2023-01-29T07:27:39.272Z,18.27
2023-01-29T07:28:12.550Z,16.58
2023-01-29T07:28:45.051Z,16.63
2023-01-29T07:29:17.424Z,16.17
2023-01-29T07:29:50.039Z,15.75
2023-01-29T07:30:22.602Z,17.38
2023-01-29T07:30:58.871Z,13.07
2023-01-29T07:31:31.635Z,11.52
2023-01-29T07:32:04.238Z,15.23
2023-01-29T07:32:36.859Z,13.60
2023-01-29T07:33:09.718Z,14.18
2023-01-29T07:33:44.076Z,12.40
2023-01-29T07:34:16.736Z,15.35
2023-01-29T07:34:49.268Z,16.50
2023-01-29T07:35:22.150Z,16.75
2023-01-29T07:35:54.699Z,12.65
2023-01-29T07:36:27.599Z,12.27
2023-01-29T07:37:00.357Z,16.33
2023-01-29T07:37:32.799Z,14.00
2023-01-29T07:38:05.396Z,12.00
2023-01-29T07:38:38.018Z,12.82
2023-01-29T07:39:10.325Z,14.40
2023-01-29T07:39:43.107Z,12.38
2023-01-29T07:40:15.936Z,13.00
2023-01-29T07:40:49.275Z,13.95
2023-01-29T07:41:21.904Z,13.45
2023-01-29T07:41:54.391Z,13.50
2023-01-29T07:42:28.675Z,13.68
2023-01-29T07:43:01.713Z,11.20
2023-01-29T07:43:34.080Z,15.90
2023-01-29T07:44:06.817Z,12.05
2023-01-29T07:44:39.176Z,11.50
2023-01-29T07:45:12.135Z,12.40
2023-01-29T07:45:44.626Z,14.18
2023-01-29T07:46:17.550Z,12.27
2023-01-29T07:46:50.101Z,15.75
2023-01-29T07:47:22.649Z,12.32
2023-01-29T07:47:55.751Z,13.02
2023-01-29T07:48:28.215Z,15.02
2023-01-29T07:49:00.672Z,13.15
2023-01-29T07:49:33.242Z,16.60
2023-01-29T07:50:05.783Z,14.77
2023-01-29T07:50:38.631Z,13.63
2023-01-29T07:51:11.229Z,13.60
2023-01-29T07:51:43.717Z,13.65
2023-01-29T07:52:16.217Z,11.27
2023-01-29T07:52:48.906Z,12.18
2023-01-29T07:53:21.481Z,14.30